createdAt,value
2022-08-04T00:00:00.688Z,22.61
2022-08-04T00:02:52.495Z,22.48
2022-08-04T00:05:34.918Z,22.46
2022-08-04T00:08:27.874Z,22.51
2022-08-04T00:11:01.166Z,22.45
2022-08-04T00:13:33.436Z,22.41
2022-08-04T00:16:08.221Z,22.41
2022-08-04T00:18:54.298Z,22.32
2022-08-04T00:21:26.507Z,22.30
2022-08-04T00:24:10.716Z,22.20
2022-08-04T00:26:42.680Z,22.30
2022-08-04T00:29:12.217Z,22.19
2022-08-04T00:31:54.774Z,22.15
2022-08-04T00:34:29.618Z,22.16
2022-08-04T00:37:00.150Z,22.17
2022-08-04T00:39:32.142Z,22.14
2022-08-04T00:42:34.441Z,22.09
2022-08-04T00:45:31.183Z,22.01
2022-08-04T00:48:38.789Z,22.04
2022-08-04T00:51:24.918Z,22.02
2022-08-04T00:54:12.656Z,21.91
2022-08-04T00:57:04.342Z,21.94
2022-08-04T01:00:02.214Z,21.88
2022-08-04T01:02:40.973Z,21.86
2022-08-04T01:05:22.903Z,21.84
2022-08-04T01:08:26.012Z,21.74
2022-08-04T01:11:10.306Z,21.62
2022-08-04T01:14:07.048Z,21.69
2022-08-04T01:16:49.458Z,21.57
2022-08-04T01:19:55.441Z,21.61
2022-08-04T01:23:18.126Z,21.53
2022-08-04T01:26:42.496Z,21.48
2022-08-04T01:29:15.036Z,21.44
2022-08-04T01:32:01.231Z,21.50
2022-08-04T01:34:37.783Z,21.48
2022-08-04T01:37:19.165Z,21.44
2022-08-04T01:39:58.056Z,21.35
2022-08-04T01:42:32.130Z,21.32
2022-08-04T01:45:08.643Z,21.35
2022-08-04T01:47:41.645Z,21.28
2022-08-04T01:50:13.747Z,21.31
2022-08-04T01:52:50.709Z,21.32
2022-08-04T01:55:22.001Z,21.24
2022-08-04T01:57:54.562Z,21.22
2022-08-04T02:00:28.039Z,21.18
2022-08-04T02:02:58.313Z,21.19
2022-08-04T02:06:02.509Z,21.23
2022-08-04T02:08:29.219Z,21.12
2022-08-04T02:11:11.349Z,21.11
2022-08-04T02:13:56.077Z,21.13
2022-08-04T02:16:42.513Z,21.12
2022-08-04T02:22:09.947Z,21.06
2022-08-04T02:24:50.532Z,21.03
2022-08-04T02:28:00.066Z,21.02
2022-08-04T02:30:20.672Z,20.88
2022-08-04T02:32:56.528Z,20.87
2022-08-04T02:35:28.885Z,20.86
2022-08-04T02:38:12.611Z,20.77
2022-08-04T02:40:44.170Z,20.75
2022-08-04T02:43:16.577Z,20.73
2022-08-04T02:46:17.531Z,20.68
2022-08-04T02:48:51.431Z,20.60
2022-08-04T02:51:25.684Z,20.58
2022-08-04T02:53:57.658Z,20.56
2022-08-04T02:56:30.387Z,20.54
2022-08-04T02:59:03.274Z,20.53
2022-08-04T03:01:33.532Z,20.56
2022-08-04T03:04:42.804Z,20.53
2022-08-04T03:08:00.951Z,20.49
2022-08-04T03:11:26.081Z,20.47
2022-08-04T03:14:29.699Z,20.52
2022-08-04T03:17:53.143Z,20.56
2022-08-04T03:21:08.108Z,20.50
2022-08-04T03:24:20.583Z,20.48
2022-08-04T03:27:13.482Z,20.51
2022-08-04T03:30:14.545Z,20.48
2022-08-04T03:33:25.757Z,20.40
2022-08-04T03:36:36.538Z,20.36
2022-08-04T03:39:42.073Z,20.28
2022-08-04T03:42:56.239Z,20.32
2022-08-04T03:46:16.628Z,20.30
2022-08-04T03:49:26.136Z,20.24
2022-08-04T03:52:28.215Z,20.24
2022-08-04T03:55:40.159Z,20.15
2022-08-04T03:59:06.899Z,20.14
2022-08-04T04:02:28.573Z,20.13
2022-08-04T04:05:33.598Z,20.15
2022-08-04T04:09:04.160Z,20.13
2022-08-04T04:12:19.213Z,20.17
2022-08-04T04:15:20.555Z,20.20
2022-08-04T04:18:42.428Z,20.27
2022-08-04T04:21:35.658Z,20.23
2022-08-04T04:24:45.716Z,20.28
2022-08-04T04:27:39.613Z,20.23
2022-08-04T04:30:13.714Z,20.20
2022-08-04T04:33:09.119Z,20.25
2022-08-04T04:35:47.988Z,20.25
2022-08-04T04:38:40.186Z,20.35
2022-08-04T04:41:38.256Z,20.30
2022-08-04T04:44:42.365Z,20.28
2022-08-04T04:47:43.113Z,20.29
2022-08-04T04:50:33.652Z,20.26
2022-08-04T04:53:18.935Z,20.30
2022-08-04T04:55:57.858Z,20.37
2022-08-04T04:58:34.291Z,20.40
2022-08-04T05:01:58.323Z,20.42
2022-08-04T05:05:26.665Z,20.41
2022-08-04T05:08:58.266Z,20.46
2022-08-04T05:14:32.126Z,20.43
2022-08-04T05:15:15.496Z,20.46
2022-08-04T05:18:00.531Z,20.47
2022-08-04T05:20:37.260Z,20.51
2022-08-04T05:23:19.542Z,20.50
2022-08-04T05:25:59.093Z,20.53
2022-08-04T05:28:35.891Z,20.57
2022-08-04T05:31:13.274Z,20.61
2022-08-04T05:33:49.966Z,20.63
2022-08-04T05:36:39.888Z,20.64
2022-08-04T05:39:23.477Z,20.70
2022-08-04T05:41:55.156Z,20.74
2022-08-04T05:44:29.557Z,20.77
2022-08-04T05:47:01.266Z,20.83
2022-08-04T05:49:34.144Z,20.93
2022-08-04T05:52:08.999Z,21.03
2022-08-04T05:54:40.168Z,21.10
2022-08-04T05:57:12.514Z,21.16
2022-08-04T05:59:46.765Z,21.28
2022-08-04T06:02:19.622Z,21.35
2022-08-04T06:04:53.481Z,21.44
2022-08-04T06:07:22.861Z,21.52
2022-08-04T06:09:51.752Z,21.61
2022-08-04T06:12:26.688Z,21.68
2022-08-04T06:14:59.895Z,21.76
2022-08-04T06:18:32.959Z,21.83
2022-08-04T06:20:32.822Z,21.92
2022-08-04T06:23:10.139Z,22.01
2022-08-04T06:25:58.148Z,22.09
2022-08-04T06:28:29.418Z,22.16
2022-08-04T06:32:27.250Z,22.25
2022-08-04T06:33:56.283Z,22.35
2022-08-04T06:36:26.592Z,22.43
2022-08-04T06:38:58.469Z,22.52
2022-08-04T06:41:30.168Z,22.64
2022-08-04T06:44:05.268Z,22.74
2022-08-04T06:46:36.622Z,22.86
2022-08-04T06:49:07.828Z,22.98
2022-08-04T06:51:49.005Z,23.12
2022-08-04T06:54:18.423Z,23.24
2022-08-04T06:56:49.625Z,23.38
2022-08-04T06:59:20.937Z,23.48
2022-08-04T07:01:51.334Z,23.60
2022-08-04T07:04:22.005Z,23.70
2022-08-04T07:06:51.022Z,23.81
2022-08-04T07:09:20.201Z,23.94
2022-08-04T07:11:50.849Z,24.05
2022-08-04T07:14:21.443Z,24.16
2022-08-04T07:16:52.203Z,24.28
2022-08-04T07:19:22.419Z,24.38
2022-08-04T07:22:18.812Z,24.49
2022-08-04T07:24:43.539Z,24.63
2022-08-04T07:27:13.172Z,24.76
2022-08-04T07:29:42.811Z,24.89
2022-08-04T07:32:13.799Z,25.03
2022-08-04T07:34:49.786Z,25.20
2022-08-04T07:37:19.715Z,25.33
2022-08-04T07:39:49.240Z,25.48
2022-08-04T07:42:21.485Z,25.61
2022-08-04T07:44:50.617Z,25.72
2022-08-04T07:47:25.245Z,25.84
2022-08-04T07:49:58.002Z,25.94
2022-08-04T07:52:28.665Z,26.05
2022-08-04T07:54:58.064Z,26.19
2022-08-04T07:57:41.712Z,26.35
2022-08-04T08:00:15.033Z,26.52
2022-08-04T08:02:49.532Z,26.64
2022-08-04T08:05:22.023Z,26.76
2022-08-04T08:07:54.517Z,26.88
2022-08-04T08:10:31.066Z,27.08
2022-08-04T08:13:00.258Z,27.21
2022-08-04T08:15:29.220Z,27.36
2022-08-04T08:18:00.497Z,27.47
2022-08-04T08:20:33.336Z,27.61
2022-08-04T08:23:04.264Z,27.85
2022-08-04T08:25:34.696Z,27.94
2022-08-04T08:28:06.112Z,28.01
2022-08-04T08:30:35.632Z,28.12
2022-08-04T08:33:10.823Z,28.29
2022-08-04T08:35:54.994Z,28.42
2022-08-04T08:38:41.954Z,28.59
2022-08-04T08:42:03.674Z,28.73
2022-08-04T08:45:22.637Z,28.94
2022-08-04T08:48:15.330Z,29.00
2022-08-04T08:51:28.852Z,29.16
2022-08-04T08:54:31.105Z,29.31
2022-08-04T08:57:24.205Z,29.45
2022-08-04T09:00:11.314Z,29.67
2022-08-04T09:03:40.202Z,29.87
2022-08-04T09:06:49.989Z,29.76
2022-08-04T09:10:01.629Z,29.53
2022-08-04T09:12:42.702Z,29.43
2022-08-04T09:15:20.196Z,29.49
2022-08-04T09:17:55.522Z,29.38
2022-08-04T09:20:36.695Z,29.34
2022-08-04T09:23:25.245Z,29.25
2022-08-04T09:26:12.624Z,29.15
2022-08-04T09:28:55.136Z,29.27
2022-08-04T09:31:51.324Z,29.43
2022-08-04T09:34:40.658Z,29.60
2022-08-04T09:37:23.754Z,29.69
2022-08-04T09:40:06.085Z,29.78
2022-08-04T09:42:51.463Z,29.97
2022-08-04T09:45:42.470Z,30.45
2022-08-04T09:48:21.642Z,30.55
2022-08-04T09:51:00.209Z,30.49
2022-08-04T09:53:56.602Z,30.41
2022-08-04T09:56:39.551Z,30.26
2022-08-04T09:59:25.275Z,30.14
2022-08-04T10:02:00.492Z,30.04
2022-08-04T10:04:33.321Z,29.98
2022-08-04T10:07:26.221Z,29.88
2022-08-04T10:10:19.189Z,29.81
2022-08-04T10:13:19.685Z,29.79
2022-08-04T10:16:02.264Z,29.76
2022-08-04T10:18:57.680Z,29.75
2022-08-04T10:22:29.151Z,29.73
2022-08-04T10:26:03.706Z,29.71
2022-08-04T10:28:07.603Z,29.69
2022-08-04T10:30:41.869Z,29.69
2022-08-04T10:33:19.564Z,29.72
2022-08-04T10:35:55.293Z,29.70
2022-08-04T10:38:40.810Z,29.70
2022-08-04T10:41:18.944Z,29.69
2022-08-04T10:44:13.812Z,29.68
2022-08-04T10:46:51.030Z,29.68
2022-08-04T10:49:29.482Z,29.68
2022-08-04T10:52:16.795Z,29.69
2022-08-04T10:54:55.782Z,29.72
2022-08-04T10:57:34.364Z,29.73
2022-08-04T11:00:09.238Z,29.76
2022-08-04T11:02:52.749Z,29.77
2022-08-04T11:05:34.371Z,29.77
2022-08-04T11:08:21.565Z,29.76
2022-08-04T11:11:02.309Z,29.86
2022-08-04T11:13:40.967Z,29.95
2022-08-04T11:16:28.600Z,30.35
2022-08-04T11:19:12.018Z,30.86
2022-08-04T11:21:49.328Z,31.03
2022-08-04T11:24:26.522Z,31.00
2022-08-04T11:27:02.269Z,30.90
2022-08-04T11:29:42.299Z,30.88
2022-08-04T11:32:21.109Z,30.77
2022-08-04T11:34:58.921Z,30.74
2022-08-04T11:37:43.968Z,30.78
2022-08-04T11:40:24.394Z,30.84
2022-08-04T11:43:02.485Z,30.92
2022-08-04T11:45:39.212Z,31.01
2022-08-04T11:48:18.034Z,31.08
2022-08-04T11:50:54.142Z,31.38
2022-08-04T11:53:36.485Z,31.98
2022-08-04T11:56:13.516Z,32.60
2022-08-04T11:58:50.358Z,32.95
2022-08-04T12:01:30.330Z,33.12
2022-08-04T12:04:15.213Z,33.47
2022-08-04T12:07:04.512Z,33.80
2022-08-04T12:09:53.744Z,34.06
2022-08-04T12:12:36.165Z,34.25
2022-08-04T12:15:21.071Z,34.38
2022-08-04T12:18:05.857Z,34.39
2022-08-04T12:20:49.683Z,34.35
2022-08-04T12:23:26.273Z,34.41
2022-08-04T12:26:04.220Z,34.69
2022-08-04T12:29:07.322Z,34.81
2022-08-04T12:31:36.592Z,34.90
2022-08-04T12:34:14.252Z,34.59
2022-08-04T12:36:57.255Z,34.58
2022-08-04T12:39:29.838Z,34.70
2022-08-04T12:42:10.101Z,34.89
2022-08-04T12:44:42.353Z,35.16
2022-08-04T12:47:27.005Z,35.47
2022-08-04T12:50:04.067Z,35.75
2022-08-04T12:53:08.477Z,36.21
2022-08-04T12:55:38.296Z,36.14
2022-08-04T12:58:42.232Z,35.91
2022-08-04T13:02:11.310Z,35.77
2022-08-04T13:04:14.581Z,35.63
2022-08-04T13:06:45.862Z,35.39
2022-08-04T13:09:22.321Z,35.12
2022-08-04T13:11:56.929Z,34.84
2022-08-04T13:14:33.600Z,34.59
2022-08-04T13:17:04.620Z,34.38
2022-08-04T13:19:41.526Z,34.25
2022-08-04T13:22:12.188Z,34.10
2022-08-04T13:24:57.025Z,33.91
2022-08-04T13:27:48.428Z,33.74
2022-08-04T13:30:23.010Z,33.75
2022-08-04T13:32:59.134Z,33.83
2022-08-04T13:35:55.987Z,33.78
2022-08-04T13:38:22.237Z,34.02
2022-08-04T13:40:54.367Z,34.11
2022-08-04T13:44:15.694Z,34.02
2022-08-04T13:46:28.699Z,33.82
2022-08-04T13:51:59.082Z,34.41
2022-08-04T13:54:36.512Z,35.30
2022-08-04T13:57:20.994Z,35.51
2022-08-04T13:59:54.793Z,35.20
2022-08-04T14:02:35.434Z,35.09
2022-08-04T14:05:18.492Z,35.05
2022-08-04T14:07:55.657Z,35.84
2022-08-04T14:10:25.688Z,36.46
2022-08-04T14:12:56.997Z,37.47
2022-08-04T14:16:02.397Z,38.67
2022-08-04T14:18:29.738Z,39.64
2022-08-04T14:21:06.920Z,40.42
2022-08-04T14:23:47.478Z,39.92
2022-08-04T14:26:20.864Z,39.03
2022-08-04T14:29:27.421Z,38.75
2022-08-04T14:32:14.617Z,39.62
2022-08-04T14:34:46.707Z,40.59
2022-08-04T14:37:20.734Z,41.31
2022-08-04T14:40:17.572Z,42.04
2022-08-04T14:42:43.881Z,42.58
2022-08-04T14:45:15.969Z,42.74
2022-08-04T14:47:52.103Z,42.99
2022-08-04T14:50:34.021Z,42.50
2022-08-04T14:53:07.393Z,42.71
2022-08-04T14:55:36.868Z,43.10
2022-08-04T14:58:32.563Z,43.36
2022-08-04T15:01:00.066Z,43.08
2022-08-04T15:03:30.649Z,43.13
2022-08-04T15:06:08.030Z,43.39
2022-08-04T15:08:43.298Z,43.12
2022-08-04T15:11:23.084Z,41.96
2022-08-04T15:13:52.814Z,40.90
2022-08-04T15:16:25.775Z,39.93
2022-08-04T15:18:56.791Z,39.18
2022-08-04T15:21:29.235Z,38.60
2022-08-04T15:23:59.101Z,38.09
2022-08-04T15:26:40.646Z,37.60
2022-08-04T15:29:18.495Z,37.23
2022-08-04T15:32:07.906Z,36.84
2022-08-04T15:34:49.060Z,36.44
2022-08-04T15:37:26.915Z,36.09
2022-08-04T15:40:05.635Z,35.76
2022-08-04T15:42:43.181Z,35.44
2022-08-04T15:46:34.956Z,35.27
2022-08-04T15:48:36.654Z,35.11
2022-08-04T15:51:14.648Z,34.99
2022-08-04T15:54:30.820Z,34.92
2022-08-04T15:57:03.695Z,35.04
2022-08-04T16:00:03.023Z,35.07
2022-08-04T16:02:44.457Z,35.03
2022-08-04T16:05:43.785Z,34.88
2022-08-04T16:08:22.355Z,34.74
2022-08-04T16:10:52.916Z,34.60
2022-08-04T17:50:43.408Z,31.19
2022-08-04T17:53:13.426Z,31.08
2022-08-04T17:55:49.582Z,31.00
2022-08-04T17:58:22.142Z,30.90
2022-08-04T18:01:22.622Z,30.85
2022-08-04T18:03:53.340Z,30.76
2022-08-04T18:06:26.054Z,30.64
2022-08-04T18:09:22.798Z,30.64
2022-08-04T18:11:58.751Z,30.57
2022-08-04T18:14:31.101Z,30.53
2022-08-04T18:16:59.939Z,30.45
2022-08-04T18:19:31.417Z,30.33
2022-08-04T18:22:01.855Z,30.26
2022-08-04T18:24:35.544Z,30.16
2022-08-04T18:27:26.007Z,30.02
2022-08-04T18:30:33.855Z,30.00
2022-08-04T18:33:24.682Z,29.90
2022-08-04T18:36:32.467Z,29.86
2022-08-04T18:38:30.702Z,29.79
2022-08-04T18:40:59.604Z,29.69
2022-08-04T18:46:17.325Z,29.60
2022-08-04T18:48:52.185Z,29.49
2022-08-04T18:51:25.261Z,29.44
2022-08-04T18:54:01.902Z,29.39
2022-08-04T18:56:34.004Z,29.31
2022-08-04T18:59:10.028Z,29.24
2022-08-04T19:02:13.662Z,29.17
2022-08-04T19:04:32.463Z,29.07
2022-08-04T19:07:23.309Z,29.05
2022-08-04T19:09:57.819Z,28.94
2022-08-04T19:12:29.134Z,28.91
2022-08-04T19:15:10.331Z,28.86
2022-08-04T19:17:57.373Z,28.77
2022-08-04T19:20:31.441Z,28.66
2022-08-04T19:24:30.463Z,28.61
2022-08-04T19:26:02.610Z,28.51
2022-08-04T19:28:37.246Z,28.41
2022-08-04T19:31:09.479Z,28.41
2022-08-04T19:33:58.276Z,28.36
2022-08-04T19:36:32.575Z,28.27
2022-08-04T19:39:11.603Z,28.27
2022-08-04T19:42:04.741Z,28.20
2022-08-04T19:44:31.224Z,28.11
2022-08-04T19:47:02.500Z,28.05
2022-08-04T19:50:04.946Z,27.98
2022-08-04T19:52:40.299Z,27.91
2022-08-04T19:55:22.871Z,27.83
2022-08-04T19:58:10.558Z,27.80
2022-08-04T20:00:44.677Z,27.66
2022-08-04T20:03:21.069Z,27.63
2022-08-04T20:05:54.821Z,27.62
2022-08-04T20:08:25.199Z,27.61
2022-08-04T20:10:54.915Z,27.57
2022-08-04T20:13:37.152Z,27.47
2022-08-04T20:16:20.214Z,27.40
2022-08-04T20:21:55.232Z,27.36
2022-08-04T20:24:44.185Z,27.28
2022-08-04T20:27:19.396Z,27.24
2022-08-04T20:29:55.566Z,27.15
2022-08-04T20:32:26.531Z,27.06
2022-08-04T20:34:57.624Z,26.95
2022-08-04T20:37:29.045Z,26.82
2022-08-04T20:40:17.670Z,26.75
2022-08-04T20:42:48.156Z,26.72
2022-08-04T20:45:18.451Z,26.72
2022-08-04T20:47:54.306Z,26.67
2022-08-04T20:50:30.155Z,26.62
2022-08-04T20:52:59.498Z,26.56
2022-08-04T20:55:29.644Z,26.48
2022-08-04T20:58:02.484Z,26.50
2022-08-04T21:00:33.763Z,26.48
2022-08-04T21:03:03.284Z,26.39
2022-08-04T21:05:32.521Z,26.40
2022-08-04T21:08:01.845Z,26.32
2022-08-04T21:10:30.977Z,26.30
2022-08-04T21:12:59.994Z,26.34
2022-08-04T21:15:58.567Z,26.32
2022-08-04T21:18:18.906Z,26.30
2022-08-04T21:20:58.083Z,26.27
2022-08-04T21:23:26.985Z,26.24
2022-08-04T21:26:01.939Z,26.16
2022-08-04T21:28:31.330Z,26.15
2022-08-04T21:31:02.558Z,26.13
2022-08-04T21:33:50.603Z,26.09
2022-08-04T21:36:21.290Z,26.05
2022-08-04T21:38:52.485Z,26.04
2022-08-04T21:41:24.837Z,25.99
2022-08-04T21:43:56.604Z,25.93
2022-08-04T21:46:30.075Z,25.90
2022-08-04T21:49:01.396Z,25.79
2022-08-04T21:51:59.150Z,25.77
2022-08-04T21:54:24.006Z,25.63
2022-08-04T21:56:52.814Z,25.60
2022-08-04T21:59:24.010Z,25.55
2022-08-04T22:02:01.797Z,25.57
2022-08-04T22:04:32.446Z,25.51
2022-08-04T22:07:02.975Z,25.45
2022-08-04T22:09:41.046Z,25.38
2022-08-04T22:12:12.448Z,25.37
2022-08-04T22:14:42.246Z,25.33
2022-08-04T22:17:19.058Z,25.31
2022-08-04T22:19:54.968Z,25.20
2022-08-04T22:22:27.216Z,25.13
2022-08-04T22:25:12.611Z,25.11
2022-08-04T22:28:03.685Z,25.10
2022-08-04T22:30:36.801Z,25.06
2022-08-04T22:33:08.850Z,24.96
2022-08-04T22:35:48.786Z,24.94
2022-08-04T22:38:29.014Z,24.92
2022-08-04T22:41:10.168Z,24.93
2022-08-04T22:43:40.345Z,24.89
2022-08-04T22:46:12.957Z,24.87
2022-08-04T22:48:45.071Z,24.83
2022-08-04T22:51:15.195Z,24.87
2022-08-04T22:53:48.914Z,24.88
2022-08-04T22:56:38.002Z,24.88
2022-08-04T22:59:11.343Z,24.88
2022-08-04T23:01:58.694Z,24.87
2022-08-04T23:04:32.427Z,24.78
2022-08-04T23:07:09.554Z,24.73
2022-08-04T23:09:50.895Z,24.64
2022-08-04T23:12:26.297Z,24.62
2022-08-04T23:14:56.540Z,24.54
2022-08-04T23:17:27.244Z,24.52
2022-08-04T23:19:57.639Z,24.53
2022-08-04T23:22:41.835Z,24.50
2022-08-04T23:25:16.318Z,24.47
2022-08-04T23:27:50.883Z,24.41
2022-08-04T23:30:29.966Z,24.40
2022-08-04T23:32:59.535Z,24.38
2022-08-04T23:35:28.413Z,24.39
2022-08-04T23:37:59.799Z,24.37
2022-08-04T23:40:50.307Z,24.36
2022-08-04T23:43:19.626Z,24.30
2022-08-04T23:46:04.940Z,24.26
2022-08-04T23:48:39.052Z,24.24
2022-08-04T23:51:15.051Z,24.22
2022-08-04T23:54:02.173Z,24.21
2022-08-04T23:56:34.658Z,24.18
2022-08-04T23:59:04.698Z,24.13
